KBWG/BWG METAR and TAF weather

Enter ICAO airport designator
Station Type Date Time Source
KBWG METAR 2019/12/06 13:53 UTC NOAA

KBWG 061353Z AUTO 00000KT 10SM OVC110 09/04 A3011 RMK AO2 SLP198 T00940039


Station Type Date Time Source
KBWG Decoded METAR 2019/12/06 13:53 UTC NOAA

BOWLING GREEN-WARREN CO RGNL, KY, United States (KBWG) 36-58N 086-25W 161M
Dec 06, 2019 - 08:53 AM EST / 2019.12.06 1353 UTC
Wind: Calm:0
Visibility: 10 mile(s):0
Sky conditions: overcast
Temperature: 48.9 F (9.4 C)
Dew Point: 39.0 F (3.9 C)
Relative Humidity: 68%
Pressure (altimeter): 30.11 in. Hg (1019 hPa)
ob: KBWG 061353Z AUTO 00000KT 10SM OVC110 09/04 A3011 RMK AO2 SLP198 T00940039
cycle: 14

Station Type Date Time Source
KBWG TAF 2019/12/06 12:22 UTC NOAA

TAF KBWG 061120Z 0612/0712 00000KT P6SM VCSH OVC080
FM061400 VRB03KT P6SM -SHRA OVC050
FM062300 01004KT P6SM OVC023

Example: see airport list